Time;durP1;ratioP1;P1;durP2;ratioP2;P2;SDS_P1;SDS_P2;PMS_P1;PMS_P2;Temp;Humidity;BMP_temperature;BMP_pressure;BME280_temperature;BME280_humidity;BME280_pressure;Samples;Min_cycle;Max_cycle;Signal;HPM_P1;HPM_P2
2021/06/04 00:01:14;;;;;;;14.80;7.40;;;;;;;12.39;81.87;100182.78;4846596;29;20078;-74
2021/06/04 00:03:41;;;;;;;16.85;7.55;;;;;;;12.35;81.40;100175.38;4837432;29;20510;-74
2021/06/04 00:06:08;;;;;;;14.55;6.88;;;;;;;12.28;81.30;100180.94;4841239;29;20562;-74
2021/06/04 00:08:36;;;;;;;12.38;5.93;;;;;;;12.22;80.23;100185.44;4836558;29;20546;-74
2021/06/04 00:11:16;;;;;;;19.02;6.93;;;;;;;12.12;80.74;100177.94;4836899;29;20065;-74
2021/06/04 00:13:55;;;;;;;18.40;6.43;;;;;;;12.09;81.25;100181.13;4839467;29;20121;-73
2021/06/04 00:16:20;;;;;;;14.68;5.80;;;;;;;12.02;80.41;100176.97;4840975;29;20041;-74
2021/06/04 00:18:47;;;;;;;13.10;5.28;;;;;;;11.98;80.59;100184.69;4840773;29;20053;-74
2021/06/04 00:21:26;;;;;;;10.77;5.00;;;;;;;11.88;80.20;100188.00;4840782;29;20496;-75
2021/06/04 00:23:53;;;;;;;13.13;5.80;;;;;;;11.78;80.23;100187.81;4842992;29;20062;-76
2021/06/04 00:26:20;;;;;;;11.40;4.85;;;;;;;11.70;80.97;100189.84;4836378;29;20061;-75
2021/06/04 00:28:46;;;;;;;11.75;4.90;;;;;;;11.67;80.77;100192.19;4845816;29;20541;-75
2021/06/04 00:31:13;;;;;;;13.50;4.60;;;;;;;11.65;80.29;100188.91;4846152;29;20374;-76
2021/06/04 00:33:38;;;;;;;13.25;4.95;;;;;;;11.61;80.78;100191.25;4845878;29;20082;-76
2021/06/04 00:36:07;;;;;;;16.77;4.63;;;;;;;11.48;80.93;100181.53;4838761;29;20485;-77
2021/06/04 00:38:33;;;;;;;19.65;5.18;;;;;;;11.41;81.61;100184.34;4842166;29;20048;-75
2021/06/04 00:41:04;;;;;;;9.32;4.68;;;;;;;11.32;81.61;100196.56;4840549;29;20492;-76
2021/06/04 00:43:30;;;;;;;9.60;4.13;;;;;;;11.24;81.79;100186.13;4849747;29;20487;-76
2021/06/04 00:45:57;;;;;;;13.77;4.18;;;;;;;11.15;82.35;100188.38;4847355;29;20042;-74
2021/06/04 00:48:24;;;;;;;21.58;5.15;;;;;;;11.13;82.14;100190.50;4846580;29;20121;-76
2021/06/04 00:50:56;;;;;;;17.92;4.45;;;;;;;11.06;83.47;100198.69;4844012;29;20108;-76
2021/06/04 00:53:23;;;;;;;15.45;5.15;;;;;;;11.02;83.75;100196.72;4847414;29;20034;-76
2021/06/04 00:55:49;;;;;;;10.05;4.13;;;;;;;10.97;82.86;100203.63;4841465;29;20034;-76
2021/06/04 00:58:20;;;;;;;16.20;4.55;;;;;;;10.93;83.54;100193.53;4842073;29;20038;-76
2021/06/04 01:00:50;;;;;;;14.02;4.70;;;;;;;10.85;83.43;100192.03;4842599;29;20069;-76
2021/06/04 01:03:18;;;;;;;10.30;3.70;;;;;;;10.89;83.34;100192.38;4840711;29;20046;-76
2021/06/04 01:05:44;;;;;;;9.55;3.95;;;;;;;10.84;83.56;100196.56;4841693;29;20041;-76
2021/06/04 01:08:28;;;;;;;15.85;4.05;;;;;;;10.82;83.92;100201.38;4843316;29;20045;-76
2021/06/04 01:11:17;;;;;;;10.13;3.38;;;;;;;10.84;82.05;100201.97;4838649;29;20046;-76
2021/06/04 01:14:14;;;;;;;12.38;3.67;;;;;;;10.84;83.23;100201.97;4842417;29;20058;-76
2021/06/04 01:16:59;;;;;;;15.05;4.30;;;;;;;10.83;82.88;100202.22;4846288;29;20067;-76
2021/06/04 01:19:36;;;;;;;19.92;4.82;;;;;;;10.84;82.55;100209.25;4843891;29;20057;-76
2021/06/04 01:22:07;;;;;;;15.98;3.85;;;;;;;10.82;83.75;100216.75;4845567;29;20038;-76
2021/06/04 01:24:51;;;;;;;10.18;3.53;;;;;;;10.79;82.01;100218.00;4844680;29;20045;-76
2021/06/04 01:27:25;;;;;;;19.38;4.30;;;;;;;10.75;82.50;100222.22;4841494;29;20046;-76
2021/06/04 01:30:01;;;;;;;12.35;3.55;;;;;;;10.78;82.91;100234.44;4842008;29;20041;-76
2021/06/04 01:32:30;;;;;;;12.07;3.67;;;;;;;10.65;83.05;100228.19;4837320;29;20034;-76
2021/06/04 01:35:06;;;;;;;13.52;4.00;;;;;;;10.56;83.55;100218.78;4841286;29;20050;-76
2021/06/04 01:37:34;;;;;;;17.85;4.43;;;;;;;10.48;84.89;100219.09;4839993;29;20064;-76
2021/06/04 01:40:05;;;;;;;11.60;3.47;;;;;;;10.33;85.11;100224.91;4839608;29;20125;-76
2021/06/04 01:42:35;;;;;;;9.13;3.88;;;;;;;10.20;85.49;100234.81;4837036;29;20109;-77
2021/06/04 01:45:12;;;;;;;15.00;4.53;;;;;;;10.14;85.78;100234.88;4843260;29;20062;-76
2021/06/04 01:47:42;;;;;;;17.13;4.72;;;;;;;10.10;85.47;100232.66;4842030;29;20033;-76
2021/06/04 01:50:17;;;;;;;17.85;4.30;;;;;;;10.14;86.08;100218.72;4840540;29;20038;-76
2021/06/04 01:52:45;;;;;;;12.48;3.80;;;;;;;10.13;86.46;100219.78;4837737;29;20034;-77
2021/06/04 01:55:20;;;;;;;20.13;3.58;;;;;;;10.19;85.20;100216.19;4846130;29;20044;-77
2021/06/04 01:57:54;;;;;;;13.98;3.83;;;;;;;10.18;85.51;100210.00;4844563;29;20049;-76
2021/06/04 02:00:38;;;;;;;14.98;3.92;;;;;;;10.07;85.55;100213.44;4842700;29;20082;-76
2021/06/04 02:03:05;;;;;;;14.13;4.28;;;;;;;10.03;86.25;100206.88;4846253;29;20117;-76
2021/06/04 02:05:37;;;;;;;13.65;3.70;;;;;;;10.00;86.61;100208.16;4841003;29;20048;-76
2021/06/04 02:08:05;;;;;;;15.18;4.10;;;;;;;9.85;86.71;100215.78;4842461;29;20455;-76
2021/06/04 02:10:39;;;;;;;28.20;4.45;;;;;;;9.88;85.51;100209.97;4840484;29;20041;-76
2021/06/04 02:13:05;;;;;;;;;;;;;;;9.87;84.35;100219.06;4840948;29;20090;-76
2021/06/04 02:15:34;;;;;;;16.85;2.95;;;;;;;9.87;83.25;100214.53;4838554;29;19958;-75
2021/06/04 02:18:21;;;;;;;12.90;2.97;;;;;;;9.82;82.81;100223.25;4845146;29;20029;-75
2021/06/04 02:20:57;;;;;;;12.40;2.83;;;;;;;9.80;83.07;100224.56;4838421;29;20069;-77
2021/06/04 02:23:54;;;;;;;19.90;3.58;;;;;;;9.77;83.34;100222.31;4837834;29;20516;-75
2021/06/04 02:26:32;;;;;;;12.70;3.10;;;;;;;9.76;83.06;100208.03;4840568;29;20137;-76
2021/06/04 02:29:01;;;;;;;11.82;3.38;;;;;;;9.71;83.85;100221.34;4835176;29;20044;-77
2021/06/04 02:31:34;;;;;;;15.02;3.70;;;;;;;9.67;83.72;100215.56;4842099;29;20526;-76
2021/06/04 02:34:15;;;;;;;16.67;3.22;;;;;;;9.67;83.57;100215.56;4841021;29;20037;-76
2021/06/04 02:36:54;;;;;;;13.10;3.28;;;;;;;9.65;81.76;100220.34;4837884;29;20046;-77
2021/06/04 02:39:28;;;;;;;12.70;2.80;;;;;;;9.70;81.18;100225.06;4833418;29;20030;-76
2021/06/04 02:42:12;;;;;;;15.60;2.60;;;;;;;9.81;80.48;100215.44;4837504;29;20065;-77
2021/06/04 02:44:47;;;;;;;14.48;3.33;;;;;;;9.84;80.19;100217.69;4829827;29;20045;-77
2021/06/04 02:47:20;;;;;;;11.50;2.25;;;;;;;9.80;80.56;100213.78;4836555;29;20101;-75
2021/06/04 02:49:46;;;;;;;11.65;2.40;;;;;;;9.79;79.82;100215.66;4843401;29;20041;-76
2021/06/04 02:52:33;;;;;;;17.02;2.67;;;;;;;9.76;79.73;100213.41;4846645;29;20029;-76
2021/06/04 02:55:01;;;;;;;11.63;2.55;;;;;;;9.71;79.95;100213.25;4845684;29;20038;-75
2021/06/04 02:57:31;;;;;;;11.73;2.38;;;;;;;9.70;79.82;100211.63;4848943;29;20049;-75
2021/06/04 02:59:57;;;;;;;14.93;2.70;;;;;;;9.60;80.49;100217.50;4844659;29;20299;-76
2021/06/04 03:02:32;;;;;;;8.15;2.33;;;;;;;9.55;80.19;100216.56;4844943;29;20503;-76
2021/06/04 03:05:32;;;;;;;12.90;3.03;;;;;;;9.51;81.11;100214.31;4844601;29;20037;-75
2021/06/04 03:07:58;;;;;;;14.48;2.85;;;;;;;9.52;80.69;100207.91;4841065;29;20061;-75
2021/06/04 03:10:33;;;;;;;10.82;2.40;;;;;;;9.51;80.70;100206.25;4843896;29;20082;-76
2021/06/04 03:12:59;;;;;;;12.07;3.22;;;;;;;9.54;80.79;100201.47;4842456;29;20064;-76
2021/06/04 03:15:34;;;;;;;9.93;2.53;;;;;;;9.49;80.31;100204.81;4846797;29;20443;-75
2021/06/04 03:18:00;;;;;;;8.40;2.83;;;;;;;9.47;80.57;100199.69;4843213;29;20041;-76
2021/06/04 03:20:33;;;;;;;16.58;2.97;;;;;;;9.46;80.35;100203.41;4846804;29;20030;-75
2021/06/04 03:22:59;;;;;;;11.47;2.43;;;;;;;9.47;80.45;100202.38;4846931;29;20068;-76
2021/06/04 03:25:32;;;;;;;8.60;2.60;;;;;;;9.44;81.10;100196.59;4837223;29;20116;-76
2021/06/04 03:27:58;;;;;;;10.88;2.35;;;;;;;9.39;82.44;100197.28;4847495;29;20040;-75
2021/06/04 03:30:29;;;;;;;10.90;3.00;;;;;;;9.38;82.72;100192.94;4849049;29;20107;-77
2021/06/04 03:32:55;;;;;;;19.25;2.80;;;;;;;9.43;82.45;100189.56;4847344;29;20034;-76
2021/06/04 03:35:22;;;;;;;8.52;2.75;;;;;;;9.40;82.79;100198.94;4849451;29;20060;-77
2021/06/04 03:37:48;;;;;;;7.90;2.47;;;;;;;9.52;82.54;100201.69;4853421;29;20041;-75
2021/06/04 03:40:17;;;;;;;10.02;2.58;;;;;;;9.57;82.00;100198.34;4840234;29;20090;-75
2021/06/04 03:42:44;;;;;;;14.13;2.50;;;;;;;9.58;82.32;100208.03;4847306;29;20084;-75
2021/06/04 03:45:13;;;;;;;5.68;1.88;;;;;;;9.57;82.85;100214.47;4844416;29;20026;-75
2021/06/04 03:47:39;;;;;;;9.77;2.53;;;;;;;9.60;83.45;100222.88;4848414;29;20033;-76
2021/06/04 03:50:07;;;;;;;9.50;2.25;;;;;;;9.67;81.76;100223.63;4848658;29;20061;-75
2021/06/04 03:52:33;;;;;;;8.57;2.40;;;;;;;9.77;81.57;100216.94;4841013;29;20102;-75
2021/06/04 03:54:59;;;;;;;10.82;2.20;;;;;;;9.84;80.41;100228.44;4845109;29;20041;-75
2021/06/04 03:57:33;;;;;;;11.43;2.38;;;;;;;9.91;79.95;100220.28;4841575;29;20040;-75
2021/06/04 04:00:00;;;;;;;12.73;2.77;;;;;;;9.98;80.47;100226.38;4831474;29;20046;-75
2021/06/04 04:02:28;;;;;;;13.70;1.95;;;;;;;10.01;79.57;100225.94;4835524;29;20278;-75
2021/06/04 04:04:58;;;;;;;13.63;2.25;;;;;;;10.00;79.89;100231.56;4841837;29;20438;-75
2021/06/04 04:07:28;;;;;;;7.18;2.08;;;;;;;10.00;80.88;100226.97;4830679;29;20496;-76
2021/06/04 04:09:54;;;;;;;8.45;1.80;;;;;;;10.01;79.60;100234.00;4834454;29;20037;-75
2021/06/04 04:12:21;;;;;;;11.63;2.13;;;;;;;10.03;79.15;100234.59;4847849;29;20034;-76
2021/06/04 04:14:47;;;;;;;8.00;1.80;;;;;;;10.07;77.71;100245.75;4847184;29;20508;-76
2021/06/04 04:17:13;;;;;;;13.27;1.88;;;;;;;10.06;79.98;100238.72;4847582;29;20037;-75
2021/06/04 04:19:38;;;;;;;5.95;2.00;;;;;;;10.05;78.82;100235.19;4829921;29;20045;-75
2021/06/04 04:22:05;;;;;;;6.65;1.73;;;;;;;10.04;78.69;100241.63;4845015;29;20050;-75
2021/06/04 04:24:34;;;;;;;5.75;1.80;;;;;;;10.03;78.50;100241.88;4845110;29;20045;-76
2021/06/04 04:27:01;;;;;;;6.95;2.10;;;;;;;10.11;78.53;100244.25;4852075;29;20052;-75
2021/06/04 04:29:26;;;;;;;10.25;2.10;;;;;;;10.20;78.70;100240.19;4850832;29;20058;-75
2021/06/04 04:31:56;;;;;;;7.60;1.48;;;;;;;10.45;76.88;100247.34;4839492;29;20037;-75
2021/06/04 04:34:25;;;;;;;9.10;1.60;;;;;;;10.53;75.41;100251.56;4833466;29;20129;-74
2021/06/04 04:36:54;;;;;;;12.57;2.17;;;;;;;10.54;74.65;100245.97;4846890;29;20042;-75
2021/06/04 04:39:30;;;;;;;8.15;1.85;;;;;;;10.67;73.68;100249.50;4848654;29;20452;-75
2021/06/04 04:41:57;;;;;;;9.75;1.83;;;;;;;10.73;74.84;100262.03;4839003;29;20058;-75
2021/06/04 04:44:30;;;;;;;13.52;2.17;;;;;;;10.83;73.99;100258.81;4828232;29;20047;-75
2021/06/04 04:46:57;;;;;;;;;;;;;;;10.98;73.75;100263.72;4848516;29;20034;-75
2021/06/04 04:49:23;;;;;;;9.50;1.83;;;;;;;11.05;72.82;100274.41;4843687;29;19920;-75
2021/06/04 04:51:49;;;;;;;6.13;1.90;;;;;;;11.20;73.16;100274.78;4841873;29;20089;-75
2021/06/04 04:54:15;;;;;;;11.10;1.63;;;;;;;11.31;71.41;100266.94;4842972;29;20041;-75
2021/06/04 04:56:41;;;;;;;16.45;1.90;;;;;;;11.30;73.07;100276.06;4825733;29;20040;-75
2021/06/04 04:59:09;;;;;;;14.20;2.00;;;;;;;11.32;72.83;100269.38;4834000;29;20050;-76
2021/06/04 05:01:35;;;;;;;7.90;1.88;;;;;;;11.36;72.01;100278.63;4844504;29;20516;-76
2021/06/04 05:04:01;;;;;;;8.93;1.75;;;;;;;11.38;71.69;100281.13;4847143;29;20076;-76
2021/06/04 05:06:27;;;;;;;8.05;1.98;;;;;;;11.45;71.16;100279.13;4838445;29;20033;-77
2021/06/04 05:08:52;;;;;;;12.43;2.10;;;;;;;11.42;71.09;100264.22;4861080;29;20033;-76
2021/06/04 05:11:19;;;;;;;11.90;2.17;;;;;;;11.51;70.08;100263.88;4841723;29;20041;-77
2021/06/04 05:13:44;;;;;;;9.25;2.00;;;;;;;11.59;68.65;100273.47;4826805;29;20042;-77
2021/06/04 05:16:10;;;;;;;7.05;1.80;;;;;;;11.64;68.68;100273.59;4847869;29;20045;-76
2021/06/04 05:18:37;;;;;;;8.77;1.95;;;;;;;11.66;69.48;100276.88;4843385;29;20030;-76
2021/06/04 05:21:09;;;;;;;9.85;2.10;;;;;;;11.88;68.96;100273.56;4833767;29;20037;-75
2021/06/04 05:23:35;;;;;;;7.53;1.83;;;;;;;12.11;68.35;100278.91;4832736;29;20034;-76
2021/06/04 05:26:01;;;;;;;14.25;1.83;;;;;;;12.23;66.19;100287.00;4836872;29;20113;-76
2021/06/04 05:28:28;;;;;;;7.28;1.63;;;;;;;12.03;67.48;100283.88;4843864;29;20034;-75
2021/06/04 05:31:02;;;;;;;10.68;1.90;;;;;;;11.78;67.48;100290.38;4842762;29;20043;-76
2021/06/04 05:33:33;;;;;;;7.20;1.65;;;;;;;11.53;68.22;100297.66;4837549;29;20034;-76
2021/06/04 05:36:01;;;;;;;5.78;1.63;;;;;;;11.37;70.61;100303.75;4827152;29;20042;-76
2021/06/04 05:38:27;;;;;;;14.63;2.05;;;;;;;11.30;70.98;100293.06;4846366;29;20030;-76
2021/06/04 05:40:53;;;;;;;7.85;2.17;;;;;;;11.22;71.44;100302.34;4827449;29;20121;-76
2021/06/04 05:43:25;;;;;;;6.70;2.00;;;;;;;11.20;71.30;100299.03;4846550;29;20042;-75
2021/06/04 05:45:52;;;;;;;11.55;2.17;;;;;;;11.24;71.33;100307.47;4837932;29;20604;-76
2021/06/04 05:48:19;;;;;;;12.77;2.03;;;;;;;11.26;71.25;100314.28;4842947;29;20101;-76
2021/06/04 05:50:50;;;;;;;8.18;1.70;;;;;;;11.36;71.01;100315.59;4840993;29;20420;-77
2021/06/04 05:53:19;;;;;;;11.07;2.20;;;;;;;11.57;71.32;100306.91;4845954;29;20514;-76
2021/06/04 05:55:45;;;;;;;5.88;1.60;;;;;;;11.79;68.63;100313.59;4817874;29;20045;-78
2021/06/04 05:58:13;;;;;;;7.60;1.63;;;;;;;11.89;65.76;100307.59;4837179;29;20042;-76
2021/06/04 06:00:46;;;;;;;8.82;1.98;;;;;;;12.09;64.52;100315.34;4835351;29;20050;-77
2021/06/04 06:03:14;;;;;;;6.72;1.95;;;;;;;12.38;65.07;100323.47;4847611;29;20041;-78
2021/06/04 06:05:41;;;;;;;10.88;1.77;;;;;;;13.13;64.48;100326.16;4844931;29;20518;-77
2021/06/04 06:08:07;;;;;;;6.38;1.48;;;;;;;13.07;64.95;100322.53;4835206;29;20033;-76
2021/06/04 06:10:33;;;;;;;4.85;1.42;;;;;;;13.39;62.16;100332.81;4841592;29;20029;-78
2021/06/04 06:12:59;;;;;;;7.50;1.77;;;;;;;13.33;60.97;100341.91;4828992;29;20515;-76
2021/06/04 06:15:27;;;;;;;5.40;1.20;;;;;;;13.28;57.50;100347.25;4842832;29;20136;-75
2021/06/04 06:17:53;;;;;;;5.88;1.40;;;;;;;13.24;59.30;100343.34;4842822;29;20053;-76
2021/06/04 06:20:22;;;;;;;7.40;1.35;;;;;;;13.54;55.59;100345.78;4843119;29;20038;-76
2021/06/04 06:22:48;;;;;;;5.32;1.38;;;;;;;13.49;56.00;100345.69;4836105;29;20082;-76
2021/06/04 06:25:17;;;;;;;6.80;1.13;;;;;;;13.67;54.01;100346.50;4841420;29;20034;-76
2021/06/04 06:27:44;;;;;;;6.40;1.38;;;;;;;13.84;52.62;100349.19;4838886;29;20042;-77
2021/06/04 06:30:16;;;;;;;4.45;1.05;;;;;;;14.66;50.61;100352.09;4836471;29;20094;-78
2021/06/04 06:32:42;;;;;;;5.68;1.05;;;;;;;14.63;51.43;100347.19;4836219;29;20034;-79
2021/06/04 06:35:09;;;;;;;5.13;0.98;;;;;;;14.83;48.69;100349.28;4834277;29;20049;-78
2021/06/04 06:37:35;;;;;;;7.70;1.50;;;;;;;14.46;50.33;100353.50;4835489;29;20037;-75
2021/06/04 06:40:01;;;;;;;5.53;1.20;;;;;;;14.23;52.63;100353.75;4845935;29;20034;-76
2021/06/04 06:42:27;;;;;;;4.75;1.02;;;;;;;13.94;52.26;100356.63;4840594;29;20112;-77
2021/06/04 06:44:52;;;;;;;4.78;1.05;;;;;;;13.81;51.30;100365.94;4844050;29;20041;-76
2021/06/04 06:47:18;;;;;;;4.43;1.05;;;;;;;13.27;54.29;100368.03;4844527;29;20033;-75
2021/06/04 06:49:45;;;;;;;2.88;1.17;;;;;;;13.26;53.94;100371.00;4839829;29;20044;-76
2021/06/04 06:52:10;;;;;;;3.90;1.02;;;;;;;13.36;54.78;100376.59;4842368;29;20033;-76
2021/06/04 06:54:41;;;;;;;7.15;1.15;;;;;;;13.02;54.97;100382.78;4848967;29;20065;-76
2021/06/04 06:57:07;;;;;;;4.07;1.20;;;;;;;12.98;56.62;100380.78;4850701;29;20041;-75
2021/06/04 06:59:34;;;;;;;4.20;1.13;;;;;;;13.08;55.06;100375.56;4848627;29;20063;-76
2021/06/04 07:02:05;;;;;;;3.15;1.08;;;;;;;12.77;56.66;100380.41;4844856;29;20517;-75
2021/06/04 07:04:31;;;;;;;5.18;1.10;;;;;;;12.95;55.11;100383.97;4842219;29;20041;-75
2021/06/04 07:06:58;;;;;;;9.02;1.48;;;;;;;12.81;55.25;100381.56;4840088;29;20040;-76
2021/06/04 07:09:24;;;;;;;6.45;1.30;;;;;;;12.79;56.62;100391.81;4835882;29;20045;-77
2021/06/04 07:11:54;;;;;;;4.32;1.13;;;;;;;13.24;54.46;100386.63;4846813;29;20042;-77
2021/06/04 07:14:33;;;;;;;2.97;1.10;;;;;;;13.44;53.74;100386.19;4839147;29;20102;-78
2021/06/04 07:17:01;;;;;;;9.10;1.30;;;;;;;13.74;52.83;100391.28;4831195;29;20046;-76
2021/06/04 07:19:27;;;;;;;6.10;1.00;;;;;;;13.89;52.09;100387.16;4831259;29;20031;-77
2021/06/04 07:21:54;;;;;;;8.50;1.30;;;;;;;13.81;50.65;100393.81;4837982;29;20046;-77
2021/06/04 07:24:22;;;;;;;3.70;1.13;;;;;;;13.58;51.24;100395.63;4838710;29;20026;-76
2021/06/04 07:26:51;;;;;;;6.90;1.23;;;;;;;13.57;53.11;100385.88;4836601;29;20078;-76
2021/06/04 07:29:18;;;;;;;4.20;0.77;;;;;;;13.59;53.20;100401.88;4834878;29;20128;-77
2021/06/04 07:31:44;;;;;;;3.03;1.00;;;;;;;13.85;51.55;100407.69;4837525;29;20044;-76
2021/06/04 07:34:12;;;;;;;2.40;0.93;;;;;;;14.05;51.19;100413.41;4833400;29;20034;-76
2021/06/04 07:36:42;;;;;;;4.28;1.00;;;;;;;14.41;50.08;100417.66;4843127;29;20062;-64
2021/06/04 07:39:12;;;;;;;4.53;0.80;;;;;;;14.42;50.65;100425.53;4835237;29;20083;-76
2021/06/04 07:41:38;;;;;;;3.42;0.82;;;;;;;14.07;50.67;100423.97;4837421;29;20035;-76
2021/06/04 07:44:05;;;;;;;10.20;2.40;;;;;;;14.22;51.87;100427.97;4840740;29;20436;-76
2021/06/04 07:46:33;;;;;;;4.07;0.77;;;;;;;14.41;50.71;100423.91;4820232;29;20564;-76
2021/06/04 07:48:58;;;;;;;2.22;0.73;;;;;;;14.42;50.11;100427.41;4836728;29;20511;-78
2021/06/04 07:51:28;;;;;;;3.08;0.88;;;;;;;14.57;48.30;100424.09;4839480;29;20033;-78
2021/06/04 07:53:55;;;;;;;5.57;1.17;;;;;;;14.40;50.35;100424.97;4845913;29;20045;-79
2021/06/04 07:56:21;;;;;;;4.68;0.85;;;;;;;14.43;49.38;100427.19;4831974;29;20034;-79
2021/06/04 07:58:47;;;;;;;3.20;0.90;;;;;;;14.34;48.45;100425.97;4837559;29;20127;-79
2021/06/04 08:01:14;;;;;;;6.72;0.88;;;;;;;14.10;50.10;100418.03;4823264;29;20046;-78
2021/06/04 08:03:41;;;;;;;6.72;0.95;;;;;;;13.99;50.35;100422.50;4833815;29;20033;-78
2021/06/04 08:06:09;;;;;;;10.05;1.23;;;;;;;14.10;49.96;100419.94;4841518;29;20053;-78
2021/06/04 08:08:36;;;;;;;6.63;1.02;;;;;;;14.03;49.33;100414.69;4850357;29;20120;-78
2021/06/04 08:11:04;;;;;;;3.65;1.35;;;;;;;14.07;47.92;100417.75;4840315;29;20563;-78
2021/06/04 08:13:30;;;;;;;5.50;0.93;;;;;;;13.97;48.78;100424.66;4839342;29;20046;-78
2021/06/04 08:16:00;;;;;;;5.82;1.25;;;;;;;13.95;49.85;100423.25;4841014;29;20040;-78
2021/06/04 08:18:31;;;;;;;7.95;1.13;;;;;;;14.07;48.12;100420.44;4836352;29;20050;-76
2021/06/04 08:20:58;;;;;;;4.47;0.90;;;;;;;14.10;47.81;100422.66;4840370;29;20042;-77
2021/06/04 08:23:31;;;;;;;8.52;1.00;;;;;;;14.30;49.59;100416.72;4840627;29;20057;-77
2021/06/04 08:25:58;;;;;;;5.18;0.70;;;;;;;14.41;48.12;100423.06;4833695;29;20128;-76
2021/06/04 08:28:25;;;;;;;7.65;0.95;;;;;;;14.69;46.80;100415.81;4841407;29;20110;-76
2021/06/04 08:30:51;;;;;;;3.47;1.10;;;;;;;14.64;45.75;100419.31;4495688;29;10000343;-77
2021/06/04 08:33:25;;;;;;;4.72;0.93;;;;;;;14.64;46.62;100417.38;4837990;29;20060;-76
2021/06/04 08:35:53;;;;;;;8.80;1.10;;;;;;;15.05;46.03;100406.22;4829494;29;20046;-77
2021/06/04 08:38:18;;;;;;;3.35;0.90;;;;;;;15.13;44.58;100406.81;4836442;29;20041;-77
2021/06/04 08:40:46;;;;;;;4.25;0.80;;;;;;;15.06;46.16;100409.75;4828635;29;20437;-77
2021/06/04 08:43:26;;;;;;;2.60;0.95;;;;;;;15.22;45.59;100395.25;4827617;29;20030;-76
2021/06/04 08:46:25;;;;;;;7.60;1.15;;;;;;;15.21;45.54;100404.47;4826449;29;20046;-77
2021/06/04 08:48:58;;;;;;;2.90;0.80;;;;;;;15.03;46.71;100402.94;4830518;29;20045;-77
2021/06/04 08:51:33;;;;;;;4.43;1.23;;;;;;;15.06;47.67;100407.03;4833439;29;20400;-77
2021/06/04 08:54:29;;;;;;;6.40;1.10;;;;;;;14.92;45.28;100417.47;4837604;29;20061;-76
2021/06/04 08:57:06;;;;;;;5.13;1.10;;;;;;;14.88;45.26;100417.16;4833115;29;20038;-76
2021/06/04 08:59:33;;;;;;;2.63;0.70;;;;;;;14.82;47.25;100409.22;4836778;29;20049;-76
2021/06/04 09:02:03;;;;;;;5.38;1.05;;;;;;;15.19;44.94;100406.63;4830910;29;20125;-76
2021/06/04 09:04:45;;;;;;;5.10;1.25;;;;;;;15.38;44.48;100408.97;4838260;29;20026;-77
2021/06/04 09:07:19;;;;;;;3.53;0.77;;;;;;;15.35;44.26;100401.34;4837420;29;20030;-76
2021/06/04 09:09:49;;;;;;;4.35;1.05;;;;;;;15.30;44.77;100404.00;4832087;29;20098;-76
2021/06/04 09:12:27;;;;;;;4.72;0.80;;;;;;;15.45;45.11;100403.31;4828509;29;20026;-78
2021/06/04 09:14:53;;;;;;;3.50;0.90;;;;;;;15.65;44.92;100397.22;4826472;29;20053;-76
2021/06/04 09:17:22;;;;;;;2.00;0.68;;;;;;;15.68;44.11;100404.84;4835972;29;20054;-77
2021/06/04 09:19:57;;;;;;;5.35;0.82;;;;;;;16.05;43.76;100408.66;4821406;29;20372;-77
2021/06/04 09:22:28;;;;;;;6.80;1.00;;;;;;;16.04;43.48;100405.09;4828432;29;20121;-78
2021/06/04 09:24:53;;;;;;;8.10;1.10;;;;;;;16.48;43.09;100406.69;4840387;29;20034;-78
2021/06/04 09:27:44;;;;;;;4.43;0.70;;;;;;;16.89;42.67;100403.28;4835276;29;20511;-78
2021/06/04 09:30:28;;;;;;;5.22;0.98;;;;;;;16.91;41.58;100401.13;4799394;29;20053;-78
2021/06/04 09:33:02;;;;;;;;;;;;;;;16.01;42.49;100404.84;4798637;29;20452;-77
2021/06/04 09:35:28;;;;;;;3.90;1.02;;;;;;;16.36;43.08;100393.31;4786918;29;20438;-77
2021/06/04 09:38:28;;;;;;;6.97;1.20;;;;;;;16.30;42.52;100409.88;4796346;29;20043;-76
2021/06/04 09:40:55;;;;;;;5.72;0.80;;;;;;;16.67;41.96;100403.50;4793923;29;20062;-78
2021/06/04 09:43:32;;;;;;;3.78;0.90;;;;;;;17.00;41.70;100408.78;4799368;29;20047;-78
2021/06/04 09:46:00;;;;;;;3.08;0.90;;;;;;;17.35;39.65;100408.00;4797801;29;20118;-76
2021/06/04 09:48:35;;;;;;;2.83;0.90;;;;;;;17.32;39.86;100396.84;4785313;29;21227;-77
2021/06/04 09:51:13;;;;;;;5.93;1.60;;;;;;;17.36;41.47;100387.84;4795559;29;20095;-76
2021/06/04 09:53:39;;;;;;;5.20;0.95;;;;;;;17.01;41.35;100385.94;4800129;29;20493;-77
2021/06/04 09:56:07;;;;;;;2.53;0.90;;;;;;;17.15;41.86;100386.19;4796320;29;20050;-77
2021/06/04 09:58:54;;;;;;;3.63;1.08;;;;;;;17.41;40.74;100387.84;4797312;29;20039;-75
2021/06/04 10:01:26;;;;;;;4.03;1.02;;;;;;;17.43;40.49;100390.31;4793593;29;20059;-75
2021/06/04 10:03:59;;;;;;;6.60;1.05;;;;;;;17.64;40.98;100406.63;4798407;29;20050;-75
2021/06/04 10:06:32;;;;;;;2.43;0.90;;;;;;;17.97;39.62;100407.13;4805731;29;20061;-75
2021/06/04 10:09:05;;;;;;;5.05;1.15;;;;;;;17.91;38.99;100384.53;4838138;29;20102;-78
2021/06/04 10:11:32;;;;;;;2.10;0.82;;;;;;;17.99;37.73;100380.41;4835254;29;20137;-77
2021/06/04 10:14:07;;;;;;;3.20;1.15;;;;;;;18.08;39.43;100380.72;4836230;29;20327;-78
2021/06/04 10:19:44;;;;;;;3.95;1.17;;;;;;;18.33;37.96;100393.41;4830153;29;20214;-75
2021/06/04 10:22:31;;;;;;;3.85;1.23;;;;;;;18.21;37.81;100393.75;4829565;29;20030;-76
2021/06/04 10:25:00;;;;;;;3.03;0.90;;;;;;;18.58;38.34;100388.97;4835975;29;20058;-75
2021/06/04 10:27:27;;;;;;;6.32;1.23;;;;;;;18.29;37.03;100386.88;4835697;29;20042;-77
2021/06/04 10:30:21;;;;;;;4.45;0.93;;;;;;;18.57;40.36;100388.13;4826805;29;20039;-77
2021/06/04 10:33:11;;;;;;;5.95;0.93;;;;;;;18.78;38.72;100385.28;4816225;29;20043;-77
2021/06/04 10:35:48;;;;;;;5.75;1.38;;;;;;;18.78;39.18;100393.47;4818902;29;20045;-76
2021/06/04 10:38:19;;;;;;;3.92;1.02;;;;;;;18.90;37.10;100387.69;4801697;29;20129;-76
2021/06/04 10:40:50;;;;;;;5.82;1.17;;;;;;;18.95;37.27;100389.56;4812114;29;20040;-77
2021/06/04 10:43:41;;;;;;;5.80;1.67;;;;;;;18.24;38.16;100382.28;4812408;29;20187;-77
2021/06/04 10:46:21;;;;;;;5.47;1.10;;;;;;;18.22;38.93;100389.09;4818526;29;20031;-77
2021/06/04 10:49:05;;;;;;;5.13;1.58;;;;;;;18.73;40.84;100388.88;4813588;29;20043;-78
2021/06/04 10:51:43;;;;;;;6.50;1.63;;;;;;;18.57;40.34;100388.13;4817716;29;20053;-78
2021/06/04 10:54:24;;;;;;;5.00;1.10;;;;;;;18.54;40.41;100393.31;4816657;29;20109;-78
2021/06/04 10:57:02;;;;;;;5.32;1.60;;;;;;;18.65;41.44;100381.28;4817138;29;20129;-78
2021/06/04 10:59:51;;;;;;;6.43;1.73;;;;;;;18.64;40.75;100392.47;4816601;29;20058;-78
2021/06/04 11:02:26;;;;;;;9.95;1.85;;;;;;;18.22;41.93;100384.47;4821015;29;20214;-77
2021/06/04 11:05:19;;;;;;;8.30;1.67;;;;;;;18.13;42.97;100381.50;4480072;29;10000109;-76
2021/06/04 11:08:00;;;;;;;8.05;2.03;;;;;;;18.11;41.89;100380.94;4816946;29;20125;-73
2021/06/04 11:10:45;;;;;;;9.70;1.77;;;;;;;18.02;41.81;100376.38;4835292;29;20200;-76
2021/06/04 11:13:29;;;;;;;10.30;1.80;;;;;;;18.17;42.08;100379.03;4830030;29;20045;-75
2021/06/04 11:16:26;;;;;;;5.25;1.52;;;;;;;18.22;43.86;100386.38;4835836;29;20615;-76
2021/06/04 11:19:03;;;;;;;8.52;1.80;;;;;;;18.57;42.28;100390.06;4832183;29;20057;-73
2021/06/04 11:21:42;;;;;;;12.60;2.03;;;;;;;18.75;43.37;100390.50;4838121;29;20389;-76
2021/06/04 11:24:16;;;;;;;9.40;1.95;;;;;;;18.80;43.21;100387.75;4828411;29;20515;-75
2021/06/04 11:26:51;;;;;;;8.18;2.10;;;;;;;18.21;43.42;100390.19;4827302;29;20087;-75
2021/06/04 11:29:20;;;;;;;9.82;1.88;;;;;;;18.56;44.51;100385.72;4831943;29;20539;-76
2021/06/04 11:32:13;;;;;;;8.45;1.80;;;;;;;18.57;43.20;100379.16;4832015;29;20038;-75
2021/06/04 11:34:55;;;;;;;6.13;1.75;;;;;;;18.26;43.73;100387.44;4835934;29;20042;-77
2021/06/04 11:37:42;;;;;;;7.00;1.95;;;;;;;18.02;44.58;100381.81;4837882;29;20042;-75
2021/06/04 11:40:21;;;;;;;6.63;2.17;;;;;;;18.21;44.04;100388.28;4837644;29;20362;-75
2021/06/04 11:42:54;;;;;;;16.30;2.58;;;;;;;18.36;43.35;100390.13;4834558;29;20030;-77
2021/06/04 11:45:23;;;;;;;8.15;2.05;;;;;;;18.58;43.34;100378.06;4829017;29;20033;-77
2021/06/04 11:47:49;;;;;;;6.18;1.90;;;;;;;18.72;42.01;100379.06;4821408;29;20098;-77